Time;durP1;ratioP1;P1;durP2;ratioP2;P2;SDS_P1;SDS_P2;PMS_P1;PMS_P2;Temp;Humidity;BMP_temperature;BMP_pressure;BME280_temperature;BME280_humidity;BME280_pressure;Samples;Min_cycle;Max_cycle;Signal;HPM_P1;HPM_P2
2023/01/09 00:00:27;;;;;;;7.63;3.00;;;7.90;99.90;;;;;;5112236;27;20046;-77
2023/01/09 00:02:52;;;;;;;7.72;3.00;;;7.90;99.90;;;;;;5129517;27;20043;-78
2023/01/09 00:05:19;;;;;;;6.43;2.85;;;7.90;99.90;;;;;;5112090;28;20149;-78
2023/01/09 00:07:45;;;;;;;9.43;3.20;;;8.00;99.90;;;;;;5130277;28;20031;-78
2023/01/09 00:10:12;;;;;;;7.10;2.60;;;8.00;99.90;;;;;;5111137;28;20356;-78
2023/01/09 00:12:38;;;;;;;6.95;2.70;;;8.00;99.90;;;;;;5110838;28;20047;-78
2023/01/09 00:15:04;;;;;;;7.30;2.97;;;8.00;99.90;;;;;;5095078;28;20043;-78
2023/01/09 00:17:30;;;;;;;7.70;3.10;;;8.00;99.90;;;;;;5130905;28;20387;-78
2023/01/09 00:19:57;;;;;;;7.55;2.80;;;8.00;99.90;;;;;;5112012;28;20042;-78
2023/01/09 00:22:23;;;;;;;6.93;3.05;;;8.00;99.90;;;;;;5105089;28;20035;-78
2023/01/09 00:24:49;;;;;;;8.45;3.38;;;8.00;99.90;;;;;;5096378;28;20062;-78
2023/01/09 00:27:15;;;;;;;8.18;3.45;;;8.00;99.90;;;;;;5095524;28;20066;-77
2023/01/09 00:29:41;;;;;;;8.88;4.03;;;8.00;99.90;;;;;;5089843;28;20042;-77
2023/01/09 00:32:09;;;;;;;7.50;3.10;;;7.90;99.90;;;;;;5087656;28;20036;-77
2023/01/09 00:34:36;;;;;;;6.72;2.83;;;7.80;99.90;;;;;;5090049;28;20419;-78
2023/01/09 00:37:03;;;;;;;6.35;2.22;;;7.80;99.90;;;;;;5089494;28;20059;-78
2023/01/09 00:39:29;;;;;;;6.28;2.42;;;7.70;99.90;;;;;;5093191;28;20040;-78
2023/01/09 00:41:57;;;;;;;5.45;1.80;;;7.60;99.90;;;;;;5092548;28;20044;-78
2023/01/09 00:44:38;;;;;;;4.88;1.70;;;7.60;99.90;;;;;;5091967;28;20113;-78
2023/01/09 00:47:13;;;;;;;3.95;1.30;;;7.50;99.90;;;;;;5092225;28;20044;-78
2023/01/09 00:49:40;;;;;;;4.15;1.30;;;7.40;99.90;;;;;;5093743;28;20113;-79
2023/01/09 00:52:08;;;;;;;3.47;1.20;;;7.40;99.90;;;;;;5128043;27;20533;-79
2023/01/09 00:54:34;;;;;;;2.55;0.82;;;7.40;99.90;;;;;;5133425;27;20391;-79
2023/01/09 00:57:00;;;;;;;3.40;1.00;;;7.30;99.90;;;;;;5109252;27;20043;-79
2023/01/09 00:59:26;;;;;;;4.85;1.15;;;7.30;99.90;;;;;;5093634;28;20459;-79
2023/01/09 01:01:52;;;;;;;3.58;1.10;;;7.20;99.90;;;;;;5094598;28;20048;-79
2023/01/09 01:09:46;;;;;;;2.92;1.00;;;7.20;99.90;;;;;;5095068;28;20749;-79
2023/01/09 01:12:12;;;;;;;4.00;1.40;;;7.10;99.90;;;;;;5094688;28;20081;-78
2023/01/09 01:14:38;;;;;;;2.45;0.80;;;7.10;99.90;;;;;;5103421;28;20058;-79
2023/01/09 01:17:05;;;;;;;2.70;0.90;;;7.10;99.90;;;;;;5112848;28;20043;-78
2023/01/09 01:19:31;;;;;;;2.47;0.90;;;7.10;99.90;;;;;;5111471;28;20040;-78
2023/01/09 01:21:57;;;;;;;1.95;0.90;;;7.10;99.90;;;;;;5111203;28;20124;-78
2023/01/09 01:24:22;;;;;;;3.33;1.00;;;7.00;99.90;;;;;;5103144;28;20122;-79
2023/01/09 01:26:48;;;;;;;1.95;0.95;;;7.00;99.90;;;;;;5092584;28;20127;-78
2023/01/09 01:29:14;;;;;;;3.22;1.20;;;7.00;99.90;;;;;;5092916;28;20063;-79
2023/01/09 01:31:39;;;;;;;4.05;1.40;;;7.00;99.90;;;;;;5091303;28;20040;-78
2023/01/09 01:34:05;;;;;;;4.45;1.30;;;7.00;99.90;;;;;;5073619;28;20111;-78
2023/01/09 01:36:32;;;;;;;3.33;1.15;;;7.00;99.90;;;;;;5092739;28;20036;-78
2023/01/09 01:38:58;;;;;;;4.38;1.70;;;7.00;99.90;;;;;;5090620;28;20035;-78
2023/01/09 01:41:29;;;;;;;3.83;1.88;;;6.90;99.90;;;;;;5092537;28;20040;-78
2023/01/09 01:44:01;;;;;;;3.45;1.40;;;7.00;99.90;;;;;;5091058;28;20066;-78
2023/01/09 01:46:29;;;;;;;7.45;2.53;;;7.00;99.90;;;;;;5090566;28;20051;-78
2023/01/09 01:48:58;;;;;;;7.45;2.58;;;7.00;99.90;;;;;;5089889;28;20036;-78
2023/01/09 01:51:27;;;;;;;7.13;2.63;;;7.00;99.90;;;;;;5098712;28;20103;-78
2023/01/09 01:53:58;;;;;;;5.72;2.67;;;7.00;99.90;;;;;;5109245;28;20112;-79
2023/01/09 01:56:41;;;;;;;5.88;2.92;;;7.00;99.90;;;;;;5112528;28;20425;-78
2023/01/09 01:59:21;;;;;;;7.22;3.08;;;7.10;99.90;;;;;;5110021;28;20055;-78
2023/01/09 02:01:50;;;;;;;5.90;2.08;;;7.10;99.90;;;;;;5111013;28;20491;-78
2023/01/09 02:04:16;;;;;;;6.68;3.25;;;7.20;99.90;;;;;;5110941;28;20039;-79
2023/01/09 02:06:45;;;;;;;6.63;3.20;;;7.20;99.90;;;;;;5113147;27;20102;-78
2023/01/09 02:09:16;;;;;;;7.28;3.10;;;7.20;99.90;;;;;;5102134;28;20032;-78
2023/01/09 02:11:43;;;;;;;;;;;7.30;99.90;;;;;;5107494;28;20054;-78
2023/01/09 02:14:09;;;;;;;7.47;2.42;;;7.20;99.90;;;;;;5097116;28;20288;-78
2023/01/09 02:17:27;;;;;;;7.13;3.53;;;7.30;99.90;;;;;;5109054;28;20036;-78
2023/01/09 02:20:25;;;;;;;7.45;3.63;;;7.20;99.90;;;;;;5059285;28;20043;-78
2023/01/09 02:23:12;;;;;;;7.38;3.83;;;7.20;99.90;;;;;;5106351;27;20395;-79
2023/01/09 02:25:55;;;;;;;9.43;3.95;;;7.20;99.90;;;;;;5116877;27;20043;-78
2023/01/09 02:28:32;;;;;;;7.40;3.83;;;7.20;99.90;;;;;;5112017;27;20035;-78
2023/01/09 02:31:19;;;;;;;8.65;3.78;;;7.10;99.90;;;;;;5132481;27;20050;-78
2023/01/09 02:33:53;;;;;;;8.52;3.75;;;7.10;99.90;;;;;;5112940;27;20039;-78
2023/01/09 02:36:39;;;;;;;7.68;4.00;;;7.00;99.90;;;;;;5132285;27;20047;-78
2023/01/09 02:39:14;;;;;;;9.02;3.92;;;7.00;99.90;;;;;;5113435;27;20058;-78
2023/01/09 02:42:02;;;;;;;9.13;4.00;;;6.90;99.90;;;;;;5114047;27;20099;-78
2023/01/09 02:44:31;;;;;;;8.10;2.42;;;6.90;99.90;;;;;;5112992;27;20035;-78
2023/01/09 02:47:06;;;;;;;9.15;4.18;;;6.80;99.90;;;;;;5076115;28;20089;-78
2023/01/09 02:49:37;;;;;;;8.38;4.05;;;6.80;99.90;;;;;;5093016;28;20050;-78
2023/01/09 02:52:24;;;;;;;9.85;3.92;;;6.70;99.90;;;;;;5110878;28;20035;-78
2023/01/09 02:55:11;;;;;;;8.13;4.07;;;6.70;99.90;;;;;;5142366;27;20051;-78
2023/01/09 02:58:03;;;;;;;7.35;2.20;;;6.60;99.90;;;;;;5093004;28;20039;-78
2023/01/09 03:00:55;;;;;;;8.88;4.00;;;6.60;99.90;;;;;;5092736;28;20039;-78
2023/01/09 03:04:11;;;;;;;8.48;3.70;;;6.60;99.90;;;;;;5110456;27;20120;-78
2023/01/09 03:06:53;;;;;;;9.48;4.40;;;6.50;99.90;;;;;;5011508;28;20088;-78
2023/01/09 03:09:21;;;;;;;6.05;2.63;;;6.50;99.90;;;;;;5030514;28;20362;-78
2023/01/09 03:11:54;;;;;;;6.78;2.60;;;6.50;99.90;;;;;;5030765;28;20044;-78
2023/01/09 03:14:23;;;;;;;8.02;4.38;;;6.50;99.90;;;;;;5042474;28;20045;-78
2023/01/09 03:16:53;;;;;;;9.90;4.68;;;6.40;99.90;;;;;;5027938;28;20049;-78
2023/01/09 03:19:22;;;;;;;6.60;2.37;;;6.40;99.90;;;;;;5018511;28;20488;-78
2023/01/09 03:21:49;;;;;;;9.10;4.22;;;6.30;99.90;;;;;;5045268;28;20483;-78
2023/01/09 03:24:15;;;;;;;8.65;3.33;;;6.30;99.90;;;;;;5046835;28;20179;-78
2023/01/09 03:26:41;;;;;;;9.95;4.38;;;6.20;99.90;;;;;;5030339;28;20033;-79
2023/01/09 03:29:08;;;;;;;10.23;4.32;;;6.20;99.90;;;;;;5028606;28;20052;-79
2023/01/09 03:31:34;;;;;;;7.18;2.88;;;6.10;99.90;;;;;;5027914;28;20045;-79
2023/01/09 03:33:59;;;;;;;11.68;4.40;;;6.10;99.90;;;;;;5037820;28;20117;-79
2023/01/09 03:36:25;;;;;;;11.38;5.00;;;6.10;99.90;;;;;;5027568;28;20597;-79
2023/01/09 03:38:51;;;;;;;8.52;2.63;;;6.00;99.90;;;;;;5045690;28;20037;-78
2023/01/09 03:41:18;;;;;;;7.72;4.28;;;5.90;99.90;;;;;;5060393;28;20438;-78
2023/01/09 03:43:44;;;;;;;6.35;2.50;;;5.90;99.90;;;;;;5119548;27;20039;-78
2023/01/09 03:46:10;;;;;;;7.55;2.28;;;5.90;99.90;;;;;;5130576;27;20117;-78
2023/01/09 03:48:35;;;;;;;11.43;5.32;;;5.80;99.90;;;;;;5112707;27;20119;-78
2023/01/09 03:51:01;;;;;;;8.65;2.70;;;5.80;99.90;;;;;;5130267;27;20035;-78
2023/01/09 03:53:27;;;;;;;10.52;4.93;;;5.80;99.90;;;;;;5128763;27;20073;-79
2023/01/09 03:55:56;;;;;;;10.20;5.03;;;5.80;99.90;;;;;;5101585;28;20039;-78
2023/01/09 03:58:22;;;;;;;10.73;5.20;;;5.70;99.90;;;;;;5092543;28;20040;-78
2023/01/09 04:00:49;;;;;;;7.53;2.75;;;5.70;99.90;;;;;;5112130;27;20079;-78
2023/01/09 04:03:17;;;;;;;10.40;5.47;;;5.70;99.90;;;;;;5112309;28;20429;-78
2023/01/09 04:05:44;;;;;;;7.53;2.55;;;5.60;99.90;;;;;;5111929;28;20031;-79
2023/01/09 04:08:10;;;;;;;10.90;6.13;;;5.60;99.90;;;;;;5111949;28;20480;-79
2023/01/09 04:10:36;;;;;;;11.70;3.65;;;5.60;99.90;;;;;;5128541;28;20126;-78
2023/01/09 04:13:01;;;;;;;9.95;3.92;;;5.60;99.90;;;;;;5112386;27;20043;-79
2023/01/09 04:15:27;;;;;;;11.90;7.93;;;5.60;99.90;;;;;;5096311;28;20131;-78
2023/01/09 04:17:52;;;;;;;9.93;4.70;;;5.60;99.90;;;;;;5114346;28;20040;-78
2023/01/09 04:20:18;;;;;;;11.05;4.72;;;5.60;99.90;;;;;;5115644;27;20035;-78
2023/01/09 04:22:44;;;;;;;13.80;8.98;;;5.60;99.90;;;;;;5116129;27;20035;-77
2023/01/09 04:25:10;;;;;;;9.82;5.22;;;5.60;99.90;;;;;;5134490;27;20039;-78
2023/01/09 04:27:36;;;;;;;11.57;5.70;;;5.60;99.90;;;;;;5114066;27;20038;-77
2023/01/09 04:30:01;;;;;;;14.23;10.88;;;5.60;99.90;;;;;;5115984;27;20122;-78
2023/01/09 04:32:27;;;;;;;16.58;11.13;;;5.50;99.90;;;;;;5115793;27;20038;-78
2023/01/09 04:34:53;;;;;;;10.57;4.55;;;5.50;99.90;;;;;;5095199;28;20050;-78
2023/01/09 04:37:20;;;;;;;11.35;6.50;;;5.50;99.90;;;;;;5121050;27;20043;-78
2023/01/09 04:39:45;;;;;;;12.65;7.13;;;5.50;99.90;;;;;;5098692;27;20392;-78
2023/01/09 04:42:12;;;;;;;13.57;7.30;;;5.50;99.90;;;;;;5095539;28;20036;-78
2023/01/09 04:44:37;;;;;;;13.55;6.90;;;5.40;99.90;;;;;;5121689;27;20039;-78
2023/01/09 04:47:03;;;;;;;17.70;14.18;;;5.40;99.90;;;;;;5132055;27;20493;-78
2023/01/09 04:49:29;;;;;;;16.15;8.32;;;5.40;99.90;;;;;;5096607;27;20032;-78
2023/01/09 04:51:54;;;;;;;15.48;9.75;;;5.40;99.90;;;;;;5096032;27;20039;-78
2023/01/09 04:54:20;;;;;;;21.65;16.77;;;5.40;99.90;;;;;;5115032;27;20035;-78
2023/01/09 04:56:46;;;;;;;15.55;9.52;;;5.40;99.90;;;;;;5115315;27;20118;-78
2023/01/09 04:59:12;;;;;;;21.17;18.33;;;5.40;99.90;;;;;;5114385;27;20429;-78
2023/01/09 05:01:38;;;;;;;18.10;9.32;;;5.40;99.90;;;;;;5127023;27;20307;-78
2023/01/09 05:04:04;;;;;;;16.88;8.60;;;5.50;99.90;;;;;;5113563;27;20046;-78
2023/01/09 05:06:30;;;;;;;23.50;18.45;;;5.50;99.90;;;;;;5106036;27;20483;-78
2023/01/09 05:08:56;;;;;;;19.33;10.43;;;5.50;99.90;;;;;;5094859;28;20115;-78
2023/01/09 05:11:24;;;;;;;17.70;11.40;;;5.50;99.90;;;;;;5113557;28;20123;-78
2023/01/09 05:13:50;;;;;;;21.08;12.77;;;5.50;99.90;;;;;;5113357;28;20047;-78
2023/01/09 05:16:15;;;;;;;24.42;20.38;;;5.60;99.90;;;;;;5111437;28;20071;-78
2023/01/09 05:18:41;;;;;;;23.17;20.17;;;5.60;99.90;;;;;;5129304;27;20078;-78
2023/01/09 05:21:07;;;;;;;19.77;10.30;;;5.60;99.90;;;;;;5129932;27;20047;-78
2023/01/09 05:23:32;;;;;;;18.48;9.05;;;5.60;99.90;;;;;;5094556;28;20116;-78
2023/01/09 05:25:58;;;;;;;17.77;9.35;;;5.70;99.90;;;;;;5113027;28;20039;-78
2023/01/09 05:28:24;;;;;;;23.52;19.45;;;5.70;99.90;;;;;;5113239;28;20504;-78
2023/01/09 05:30:49;;;;;;;18.75;11.48;;;5.70;99.90;;;;;;5098151;28;20118;-78
2023/01/09 05:33:15;;;;;;;17.48;10.50;;;5.80;99.90;;;;;;5094000;28;20399;-78
2023/01/09 05:35:40;;;;;;;16.67;11.68;;;5.80;99.90;;;;;;5113591;27;20118;-78
2023/01/09 05:38:06;;;;;;;21.27;18.17;;;5.80;99.90;;;;;;5093906;28;20035;-78
2023/01/09 05:40:32;;;;;;;21.55;17.35;;;5.80;99.90;;;;;;5116702;27;20042;-78
2023/01/09 05:42:57;;;;;;;20.95;18.05;;;5.90;99.90;;;;;;5125895;27;20047;-79
2023/01/09 05:45:23;;;;;;;17.20;9.98;;;5.90;99.90;;;;;;5114561;27;20510;-78
2023/01/09 05:47:49;;;;;;;19.05;10.00;;;5.80;99.90;;;;;;5112984;27;20118;-78
2023/01/09 05:50:14;;;;;;;20.45;17.17;;;5.90;99.90;;;;;;5115024;27;20535;-78
2023/01/09 05:52:40;;;;;;;19.60;10.23;;;5.90;99.90;;;;;;5112024;27;20473;-78
2023/01/09 05:55:07;;;;;;;19.73;16.15;;;5.90;99.90;;;;;;5113157;27;20042;-78
2023/01/09 05:57:32;;;;;;;15.07;8.65;;;5.90;99.90;;;;;;5133516;27;20039;-78
2023/01/09 05:59:58;;;;;;;15.48;8.57;;;5.90;99.90;;;;;;5132465;27;20050;-78
2023/01/09 06:02:24;;;;;;;19.13;15.57;;;5.90;99.90;;;;;;5102898;28;20092;-78
2023/01/09 06:04:49;;;;;;;18.58;15.82;;;5.90;99.90;;;;;;5132759;27;20483;-79
2023/01/09 06:07:15;;;;;;;19.15;15.80;;;5.90;99.90;;;;;;5103367;28;20562;-78
2023/01/09 06:09:41;;;;;;;13.70;6.97;;;5.90;99.90;;;;;;5128805;27;20046;-79
2023/01/09 06:12:06;;;;;;;19.88;15.68;;;5.90;99.90;;;;;;5100591;27;20039;-79
2023/01/09 06:14:32;;;;;;;15.45;8.70;;;5.90;99.90;;;;;;5121613;27;20066;-78
2023/01/09 06:16:58;;;;;;;13.40;7.00;;;5.90;99.90;;;;;;5109158;27;20043;-78
2023/01/09 06:19:23;;;;;;;19.45;14.80;;;5.90;99.90;;;;;;5115005;27;20139;-79
2023/01/09 06:21:49;;;;;;;16.40;13.70;;;5.90;99.90;;;;;;5131466;27;20487;-78
2023/01/09 06:24:15;;;;;;;13.82;6.47;;;5.90;99.90;;;;;;5111888;27;20410;-78
2023/01/09 06:26:40;;;;;;;17.02;12.88;;;5.90;99.90;;;;;;5107249;27;20050;-77
2023/01/09 06:29:07;;;;;;;13.85;7.40;;;5.90;99.90;;;;;;5116428;27;20043;-77
2023/01/09 06:31:33;;;;;;;16.80;12.80;;;5.90;99.90;;;;;;5113713;27;20532;-78
2023/01/09 06:33:59;;;;;;;14.27;7.45;;;5.90;99.90;;;;;;5126133;27;20034;-77
2023/01/09 06:36:25;;;;;;;15.63;11.73;;;5.90;99.90;;;;;;5108627;27;20072;-78
2023/01/09 06:38:50;;;;;;;14.93;11.38;;;5.90;99.90;;;;;;5128163;27;20028;-78
2023/01/09 06:41:16;;;;;;;13.48;6.25;;;5.90;99.90;;;;;;5113782;27;20042;-79
2023/01/09 06:43:42;;;;;;;13.10;6.97;;;5.90;99.90;;;;;;5112528;27;20039;-78
2023/01/09 06:46:08;;;;;;;14.02;10.30;;;5.90;99.90;;;;;;5092836;28;20435;-79
2023/01/09 06:48:34;;;;;;;12.15;6.65;;;5.80;99.90;;;;;;5135319;27;20042;-78
2023/01/09 06:51:00;;;;;;;10.77;6.13;;;5.80;99.90;;;;;;5112173;27;20031;-77
2023/01/09 06:53:26;;;;;;;14.00;9.95;;;5.70;99.90;;;;;;5093746;27;20036;-78
2023/01/09 06:55:52;;;;;;;12.93;9.85;;;5.70;99.90;;;;;;5130186;27;20035;-79
2023/01/09 06:58:17;;;;;;;11.23;5.10;;;5.70;99.90;;;;;;5131056;27;20035;-78
2023/01/09 07:00:43;;;;;;;11.88;5.20;;;5.60;99.90;;;;;;5113432;27;20418;-79
2023/01/09 07:03:10;;;;;;;13.63;9.07;;;5.60;99.90;;;;;;5104159;27;20027;-78
2023/01/09 07:05:42;;;;;;;10.18;5.78;;;5.60;99.90;;;;;;5105592;27;20039;-80
2023/01/09 07:08:08;;;;;;;13.50;6.05;;;5.60;99.90;;;;;;5143672;27;20114;-78
2023/01/09 07:10:34;;;;;;;11.77;8.30;;;5.70;99.90;;;;;;5097952;28;20031;-79
2023/01/09 07:13:00;;;;;;;11.80;5.15;;;5.70;99.90;;;;;;5131620;27;20122;-80
2023/01/09 07:15:25;;;;;;;9.63;4.68;;;5.70;99.90;;;;;;5114527;27;20444;-79
2023/01/09 07:17:52;;;;;;;14.27;8.95;;;5.70;99.90;;;;;;5103599;27;20033;-79
2023/01/09 07:20:17;;;;;;;10.32;6.07;;;5.70;99.90;;;;;;5147337;27;20062;-79
2023/01/09 07:22:44;;;;;;;12.70;8.95;;;5.70;99.90;;;;;;5134269;27;20039;-78
2023/01/09 07:25:10;;;;;;;13.50;6.07;;;5.60;99.90;;;;;;5094211;28;20050;-79
2023/01/09 07:27:35;;;;;;;11.10;8.50;;;5.70;99.90;;;;;;5094946;27;20043;-79
2023/01/09 07:30:02;;;;;;;13.15;8.48;;;5.70;99.90;;;;;;5131351;27;20035;-78
2023/01/09 07:32:28;;;;;;;10.20;4.47;;;5.70;99.90;;;;;;5120295;27;20074;-79
2023/01/09 07:34:53;;;;;;;13.02;8.25;;;5.60;99.90;;;;;;5095668;27;20066;-81
2023/01/09 07:37:19;;;;;;;9.63;4.18;;;5.60;99.90;;;;;;5115995;27;20054;-79
2023/01/09 07:39:44;;;;;;;10.95;4.82;;;5.60;99.90;;;;;;5111890;27;20060;-80
2023/01/09 07:42:11;;;;;;;11.75;5.35;;;5.60;99.90;;;;;;5100820;28;20027;-78
2023/01/09 07:44:36;;;;;;;11.98;7.88;;;5.60;99.90;;;;;;5107571;27;20160;-77
2023/01/09 07:47:02;;;;;;;11.27;7.90;;;5.60;99.90;;;;;;5112739;27;20482;-78
2023/01/09 07:49:28;;;;;;;11.50;4.63;;;5.60;99.90;;;;;;5112610;27;20127;-78
2023/01/09 07:51:54;;;;;;;9.13;3.97;;;5.60;99.90;;;;;;5098355;27;20039;-77
2023/01/09 07:54:19;;;;;;;11.48;4.35;;;5.60;99.90;;;;;;5105113;27;20046;-77
2023/01/09 07:56:45;;;;;;;11.38;7.22;;;5.60;99.90;;;;;;5100477;28;20457;-78
2023/01/09 07:59:11;;;;;;;12.13;7.22;;;5.60;99.90;;;;;;5107672;27;20035;-78
2023/01/09 08:01:37;;;;;;;12.07;7.00;;;5.60;99.90;;;;;;5123991;27;20113;-79
2023/01/09 08:04:03;;;;;;;10.57;3.83;;;5.60;99.90;;;;;;5127836;27;20041;-78
2023/01/09 08:06:30;;;;;;;12.43;7.13;;;5.60;99.90;;;;;;5126099;27;20118;-79
2023/01/09 08:08:56;;;;;;;8.82;3.67;;;5.60;99.90;;;;;;5123351;27;20438;-81
2023/01/09 08:11:22;;;;;;;14.52;6.90;;;5.60;99.90;;;;;;5096115;28;20058;-83
2023/01/09 08:13:48;;;;;;;9.52;3.47;;;5.60;99.90;;;;;;5100316;28;20495;-83
2023/01/09 08:16:14;;;;;;;9.57;3.63;;;5.70;99.90;;;;;;5096123;28;20028;-83
2023/01/09 08:18:40;;;;;;;14.35;6.50;;;5.70;99.90;;;;;;5114002;28;20038;-83
2023/01/09 08:21:06;;;;;;;8.68;3.88;;;5.70;99.90;;;;;;5130046;28;20465;-85
2023/01/09 08:23:31;;;;;;;11.43;6.18;;;5.70;99.90;;;;;;5105234;28;20082;-82
2023/01/09 08:25:57;;;;;;;9.10;4.13;;;5.80;99.90;;;;;;5112092;28;20122;-83
2023/01/09 08:28:23;;;;;;;11.45;6.43;;;5.80;99.90;;;;;;5096630;28;20520;-82
2023/01/09 08:30:48;;;;;;;11.38;4.50;;;5.80;99.90;;;;;;5091379;28;20034;-79
2023/01/09 08:33:14;;;;;;;11.63;6.20;;;5.90;99.90;;;;;;5108487;28;20035;-78
2023/01/09 08:35:42;;;;;;;12.30;6.40;;;5.90;99.90;;;;;;5092622;28;20126;-78
2023/01/09 08:38:08;;;;;;;10.63;4.20;;;5.90;99.90;;;;;;5091679;28;20464;-78
2023/01/09 08:40:33;;;;;;;9.43;3.05;;;5.90;99.90;;;;;;5091689;28;20135;-78
2023/01/09 08:48:46;;;;;;;14.73;6.57;;;6.00;99.90;;;;;;5027287;28;20080;-78
2023/01/09 08:51:12;;;;;;;13.07;6.18;;;6.00;99.90;;;;;;5010957;28;20107;-78
2023/01/09 08:53:38;;;;;;;11.48;4.03;;;6.00;99.90;;;;;;5010366;28;20081;-78
2023/01/09 08:56:04;;;;;;;13.07;6.47;;;6.10;99.90;;;;;;5026908;28;20089;-78
2023/01/09 08:58:30;;;;;;;11.30;3.45;;;6.10;99.90;;;;;;5012158;28;20042;-78
2023/01/09 09:00:57;;;;;;;10.45;6.22;;;6.10;99.90;;;;;;5014083;28;20049;-78
2023/01/09 09:03:23;;;;;;;10.45;3.15;;;6.20;99.90;;;;;;5030724;28;20049;-78
2023/01/09 09:05:49;;;;;;;13.25;7.22;;;6.20;99.90;;;;;;5014202;28;20038;-78
2023/01/09 09:08:15;;;;;;;11.43;6.38;;;6.20;99.90;;;;;;5013659;28;20037;-78
2023/01/09 09:10:41;;;;;;;14.23;6.57;;;6.30;99.90;;;;;;5014599;28;20056;-78
2023/01/09 09:13:06;;;;;;;10.23;3.58;;;6.30;99.90;;;;;;5014050;28;20048;-78
2023/01/09 09:15:33;;;;;;;11.82;6.10;;;6.30;99.90;;;;;;5049847;28;20088;-78
2023/01/09 09:18:03;;;;;;;11.40;6.28;;;6.30;99.90;;;;;;5050472;28;20493;-78
2023/01/09 09:20:32;;;;;;;10.73;6.30;;;6.30;99.90;;;;;;5034128;28;20040;-78
2023/01/09 09:22:58;;;;;;;11.55;5.97;;;6.40;99.90;;;;;;5070321;28;20069;-78
2023/01/09 09:25:24;;;;;;;11.80;6.30;;;6.40;99.90;;;;;;5128588;27;20051;-78
2023/01/09 09:27:50;;;;;;;9.07;2.83;;;6.40;99.90;;;;;;5145455;27;20019;-79
2023/01/09 09:30:18;;;;;;;10.60;5.80;;;6.50;99.90;;;;;;5103491;27;20046;-78
2023/01/09 09:32:44;;;;;;;11.40;5.82;;;6.50;99.90;;;;;;5112927;27;20092;-77
2023/01/09 09:35:10;;;;;;;9.50;3.33;;;6.50;99.90;;;;;;5128186;27;20031;-77
2023/01/09 09:37:36;;;;;;;11.35;6.00;;;6.50;99.90;;;;;;5114892;27;20035;-78
2023/01/09 09:40:04;;;;;;;12.85;6.22;;;6.60;99.90;;;;;;5115059;27;20043;-77
2023/01/09 09:45:54;;;;;;;10.35;3.80;;;6.60;99.90;;;;;;5134148;27;20039;-78
2023/01/09 09:48:29;;;;;;;13.00;6.13;;;6.70;99.90;;;;;;5094836;28;20121;-78
2023/01/09 09:51:25;;;;;;;10.45;5.50;;;6.70;99.90;;;;;;5106254;27;20047;-79
2023/01/09 09:53:59;;;;;;;9.88;3.95;;;6.80;99.90;;;;;;5132769;27;20031;-78
2023/01/09 09:56:26;;;;;;;12.57;5.50;;;6.80;99.90;;;;;;5114724;27;20051;-77
2023/01/09 09:59:10;;;;;;;10.93;5.53;;;6.80;99.90;;;;;;5115001;27;20121;-78
2023/01/09 10:01:56;;;;;;;10.85;5.90;;;6.90;99.90;;;;;;5149646;27;20039;-77
2023/01/09 10:04:24;;;;;;;9.18;5.53;;;6.90;99.90;;;;;;5133194;27;20031;-77
2023/01/09 10:06:55;;;;;;;11.82;5.43;;;6.90;99.90;;;;;;5147448;27;20039;-77
2023/01/09 10:09:53;;;;;;;10.77;3.13;;;7.00;99.90;;;;;;5114599;27;20041;-78
2023/01/09 10:12:40;;;;;;;10.65;6.15;;;7.00;99.90;;;;;;5132514;27;20273;-78
2023/01/09 10:15:16;;;;;;;11.45;5.70;;;7.00;99.90;;;;;;5132640;27;20039;-78
2023/01/09 10:17:53;;;;;;;11.70;5.60;;;7.00;99.90;;;;;;5133329;27;20038;-78
2023/01/09 10:20:47;;;;;;;11.30;5.43;;;7.00;99.90;;;;;;5148726;27;20043;-78
2023/01/09 10:23:33;;;;;;;11.77;5.70;;;7.10;99.90;;;;;;5132325;27;20047;-78
2023/01/09 10:26:14;;;;;;;11.30;5.05;;;7.10;99.90;;;;;;5093906;28;20032;-78
2023/01/09 10:29:04;;;;;;;10.40;5.53;;;7.10;99.90;;;;;;5094094;28;20032;-78
2023/01/09 10:31:42;;;;;;;13.02;5.72;;;7.10;99.90;;;;;;5112403;28;20085;-78
2023/01/09 10:34:27;;;;;;;11.43;5.30;;;7.20;99.90;;;;;;5093684;28;20120;-78
2023/01/09 10:37:03;;;;;;;10.95;5.30;;;7.20;99.90;;;;;;5093333;28;20123;-78
2023/01/09 10:40:00;;;;;;;11.77;5.60;;;7.10;99.90;;;;;;5094019;28;20050;-78
2023/01/09 10:42:37;;;;;;;10.70;5.57;;;7.20;99.90;;;;;;5093813;28;20082;-78
2023/01/09 10:45:19;;;;;;;10.05;5.18;;;7.10;99.90;;;;;;5127727;27;20146;-77
2023/01/09 10:47:45;;;;;;;10.95;5.70;;;7.20;99.90;;;;;;5093622;28;20122;-78
2023/01/09 10:50:23;;;;;;;10.45;5.22;;;7.20;99.90;;;;;;5127042;27;20036;-78
2023/01/09 10:52:52;;;;;;;11.18;5.55;;;7.20;99.90;;;;;;5111481;28;20031;-77
2023/01/09 10:55:40;;;;;;;12.85;5.80;;;7.20;99.90;;;;;;5127286;27;20141;-77
2023/01/09 10:58:15;;;;;;;12.25;5.57;;;7.20;99.90;;;;;;5111838;28;20403;-79
2023/01/09 11:00:41;;;;;;;10.25;5.55;;;7.20;99.90;;;;;;5093507;28;20139;-78
2023/01/09 11:03:19;;;;;;;12.15;5.88;;;7.20;99.90;;;;;;5092742;28;20051;-78
2023/01/09 11:05:54;;;;;;;11.32;6.00;;;7.20;99.90;;;;;;5109496;28;20231;-79
2023/01/09 11:08:34;;;;;;;11.80;6.28;;;7.30;99.90;;;;;;5093019;28;20075;-79
2023/01/09 11:11:01;;;;;;;10.57;6.03;;;7.30;99.90;;;;;;5092953;28;20047;-79
2023/01/09 11:13:33;;;;;;;9.57;4.03;;;7.30;99.90;;;;;;5111233;28;20293;-79
2023/01/09 11:16:03;;;;;;;11.95;6.47;;;7.40;99.90;;;;;;5093593;28;20424;-78
2023/01/09 11:18:29;;;;;;;11.25;6.90;;;7.30;99.90;;;;;;5092997;28;20377;-78
2023/01/09 11:20:55;;;;;;;10.95;6.50;;;7.40;99.90;;;;;;5093065;28;20396;-79
2023/01/09 11:23:28;;;;;;;11.80;7.43;;;7.40;99.90;;;;;;5137143;27;20051;-78
2023/01/09 11:25:57;;;;;;;13.18;7.20;;;7.40;99.90;;;;;;5131505;27;20046;-79
2023/01/09 11:28:23;;;;;;;11.73;7.40;;;7.40;99.90;;;;;;5113162;27;20110;-78
2023/01/09 11:31:00;;;;;;;11.50;7.70;;;7.30;99.90;;;;;;5113030;27;20043;-79
2023/01/09 11:33:35;;;;;;;13.15;8.57;;;7.30;99.90;;;;;;5111822;27;20376;-78
2023/01/09 11:36:00;;;;;;;15.13;9.43;;;7.30;99.90;;;;;;5111202;27;20122;-79
2023/01/09 11:38:26;;;;;;;13.50;9.15;;;7.30;99.90;;;;;;5131224;27;20467;-77
2023/01/09 11:41:03;;;;;;;13.35;9.85;;;7.30;99.90;;;;;;5106956;28;20510;-77
2023/01/09 11:43:34;;;;;;;14.38;10.18;;;7.30;99.90;;;;;;5092829;28;20067;-78
2023/01/09 11:46:06;;;;;;;14.00;10.13;;;7.30;99.90;;;;;;5114456;27;20027;-77
2023/01/09 11:48:34;;;;;;;19.98;11.50;;;7.30;99.90;;;;;;5112525;27;20329;-77
2023/01/09 11:51:02;;;;;;;16.92;10.75;;;7.40;99.90;;;;;;5107621;28;20039;-77
2023/01/09 11:53:34;;;;;;;16.73;10.25;;;7.30;99.90;;;;;;5093535;28;20391;-77
2023/01/09 11:56:03;;;;;;;14.30;10.40;;;7.30;99.90;;;;;;5110981;27;20046;-77
2023/01/09 11:58:32;;;;;;;13.07;9.90;;;7.30;99.90;;;;;;5112679;28;20399;-78
2023/01/09 12:01:35;;;;;;;16.70;11.07;;;7.30;99.90;;;;;;5111726;27;20406;-78
2023/01/09 12:04:38;;;;;;;14.07;10.27;;;7.30;99.90;;;;;;5108280;28;20099;-78
2023/01/09 12:07:42;;;;;;;14.60;11.32;;;7.30;99.90;;;;;;5091496;28;20500;-77
2023/01/09 12:10:22;;;;;;;14.60;10.40;;;7.30;99.90;;;;;;5125951;28;20043;-78
2023/01/09 12:13:15;;;;;;;15.73;12.18;;;7.40;99.90;;;;;;5112650;28;20387;-78
2023/01/09 12:15:51;;;;;;;15.52;11.65;;;7.40;99.90;;;;;;5126361;28;20051;-78
2023/01/09 12:18:35;;;;;;;15.48;11.90;;;7.40;99.90;;;;;;5128582;28;20054;-78
2023/01/09 12:21:10;;;;;;;13.73;11.63;;;7.40;99.90;;;;;;5118634;28;20089;-78
2023/01/09 12:23:44;;;;;;;16.58;11.63;;;7.50;99.90;;;;;;5099664;28;20079;-78
2023/01/09 12:26:53;;;;;;;16.17;12.07;;;7.50;99.90;;;;;;5102369;28;20050;-78
2023/01/09 12:29:43;;;;;;;17.05;12.05;;;7.50;99.90;;;;;;5011008;28;20050;-78
2023/01/09 12:32:36;;;;;;;13.32;6.78;;;7.60;99.90;;;;;;5010523;28;20394;-78
2023/01/09 12:35:28;;;;;;;14.70;11.45;;;7.60;99.90;;;;;;5030431;28;20409;-78
2023/01/09 12:38:14;;;;;;;;;;;7.60;99.90;;;;;;5015119;28;20041;-78
2023/01/09 12:41:06;;;;;;;16.67;11.70;;;7.70;99.90;;;;;;5047613;28;19921;-78
2023/01/09 12:43:44;;;;;;;14.40;11.77;;;7.70;99.90;;;;;;5015202;28;20041;-78
2023/01/09 12:46:21;;;;;;;13.68;11.68;;;7.70;99.90;;;;;;5014081;28;20050;-77
2023/01/09 12:49:06;;;;;;;14.82;7.32;;;7.70;99.90;;;;;;5047907;28;20426;-77
2023/01/09 12:51:38;;;;;;;17.05;12.43;;;7.80;99.90;;;;;;5031258;28;20077;-78
2023/01/09 12:54:29;;;;;;;15.68;12.63;;;7.80;99.90;;;;;;5014462;28;20045;-78
2023/01/09 12:57:05;;;;;;;17.03;12.33;;;7.70;99.90;;;;;;5014300;28;20049;-78
2023/01/09 12:59:54;;;;;;;15.05;12.20;;;7.80;99.90;;;;;;5031293;28;20518;-78
2023/01/09 13:02:41;;;;;;;15.77;11.93;;;7.80;99.90;;;;;;5046855;28;20092;-78
2023/01/09 13:05:20;;;;;;;14.80;12.48;;;7.80;99.90;;;;;;5058382;28;20061;-77
2023/01/09 13:08:27;;;;;;;14.75;12.50;;;7.80;99.90;;;;;;5112668;28;20039;-77
2023/01/09 13:11:16;;;;;;;16.35;13.10;;;7.80;99.90;;;;;;5113644;28;20537;-78
2023/01/09 13:14:00;;;;;;;17.35;13.07;;;7.80;99.90;;;;;;5097159;28;20121;-77
2023/01/09 13:16:40;;;;;;;16.23;12.80;;;7.80;99.90;;;;;;5111710;28;20593;-77
2023/01/09 13:19:19;;;;;;;17.52;8.63;;;7.80;99.90;;;;;;5105666;27;20032;-78
2023/01/09 13:21:46;;;;;;;18.63;13.70;;;7.80;99.90;;;;;;5097290;28;20373;-78